createdAt,value
2023-05-19T00:00:50.564Z,816.07
2023-05-19T00:01:48.605Z,816.07
2023-05-19T00:02:48.706Z,816.09
2023-05-19T00:03:48.615Z,816.03
2023-05-19T00:04:48.619Z,816.03
2023-05-19T00:05:48.675Z,816.03
2023-05-19T00:06:48.632Z,816.00
2023-05-19T00:07:48.637Z,816.02
2023-05-19T00:08:48.649Z,815.98
2023-05-19T00:09:48.655Z,815.95
2023-05-19T00:10:48.675Z,815.96
2023-05-19T00:11:48.683Z,815.97
2023-05-19T00:12:48.684Z,815.95
2023-05-19T00:13:48.703Z,815.96
2023-05-19T00:14:48.707Z,815.96
2023-05-19T00:15:48.726Z,815.93
2023-05-19T00:16:48.721Z,815.96
2023-05-19T00:17:48.885Z,815.94
2023-05-19T00:18:48.771Z,815.92
2023-05-19T00:19:48.743Z,815.88
2023-05-19T00:20:48.760Z,815.89
2023-05-19T00:21:48.769Z,815.87
2023-05-19T00:22:48.782Z,815.88
2023-05-19T00:23:48.784Z,815.87
2023-05-19T00:24:48.791Z,815.83
2023-05-19T00:25:48.795Z,815.80
2023-05-19T00:26:48.806Z,815.81
2023-05-19T00:27:48.836Z,815.82
2023-05-19T00:28:48.834Z,815.82
2023-05-19T00:29:48.829Z,815.83
2023-05-19T00:30:48.840Z,815.82
2023-05-19T00:31:48.932Z,815.87
2023-05-19T00:32:48.949Z,815.81
2023-05-19T00:33:48.893Z,815.81
2023-05-19T00:34:48.878Z,815.84
2023-05-19T00:35:48.888Z,815.80
2023-05-19T00:36:48.895Z,815.83
2023-05-19T00:37:48.901Z,815.85
2023-05-19T00:38:48.916Z,815.83
2023-05-19T00:39:48.918Z,815.82
2023-05-19T00:40:48.937Z,815.82
2023-05-19T00:41:48.937Z,815.81
2023-05-19T00:42:48.947Z,815.82
2023-05-19T00:43:48.956Z,815.84
2023-05-19T00:44:48.970Z,815.84
2023-05-19T00:45:48.972Z,815.81
2023-05-19T00:46:49.065Z,815.81
2023-05-19T00:47:49.040Z,815.81
2023-05-19T00:48:49.013Z,815.80
2023-05-19T00:49:49.028Z,815.81
2023-05-19T00:50:49.020Z,815.78
2023-05-19T00:51:49.027Z,815.76
2023-05-19T00:52:49.034Z,815.73
2023-05-19T00:53:49.120Z,815.74
2023-05-19T00:54:49.053Z,815.72
2023-05-19T00:55:49.057Z,815.71
2023-05-19T00:56:49.077Z,815.72
2023-05-19T00:57:49.080Z,815.72
2023-05-19T00:58:49.088Z,815.65
2023-05-19T00:59:49.091Z,815.69
2023-05-19T01:00:49.124Z,815.66
2023-05-19T01:01:49.123Z,815.67
2023-05-19T01:02:49.226Z,815.66
2023-05-19T01:03:49.190Z,815.65
2023-05-19T01:04:49.141Z,815.67
2023-05-19T01:05:49.199Z,815.69
2023-05-19T01:06:49.160Z,815.61
2023-05-19T01:07:49.191Z,815.65
2023-05-19T01:08:49.172Z,815.64
2023-05-19T01:09:49.179Z,815.64
2023-05-19T01:10:49.190Z,815.64
2023-05-19T01:11:49.198Z,815.67
2023-05-19T01:12:49.212Z,815.68
2023-05-19T01:13:49.213Z,815.66
2023-05-19T01:14:49.235Z,815.70
2023-05-19T01:15:49.236Z,815.71
2023-05-19T01:16:49.365Z,815.71
2023-05-19T01:17:49.280Z,815.74
2023-05-19T01:18:49.271Z,815.71
2023-05-19T01:19:49.293Z,815.76
2023-05-19T01:20:49.293Z,815.74
2023-05-19T01:21:49.298Z,815.72
2023-05-19T01:22:49.301Z,815.71
2023-05-19T01:23:49.299Z,815.73
2023-05-19T01:24:49.310Z,815.72
2023-05-19T01:25:49.328Z,815.74
2023-05-19T01:26:49.332Z,815.73
2023-05-19T01:27:49.332Z,815.74
2023-05-19T01:28:49.354Z,815.72
2023-05-19T01:29:49.357Z,815.73
2023-05-19T01:30:49.362Z,815.74
2023-05-19T01:31:49.417Z,815.72
2023-05-19T01:32:49.425Z,815.74
2023-05-19T01:33:49.386Z,815.77
2023-05-19T01:34:49.400Z,815.75
2023-05-19T01:35:49.406Z,815.77
2023-05-19T01:36:49.413Z,815.74
2023-05-19T01:37:49.446Z,815.78
2023-05-19T01:38:49.434Z,815.78
2023-05-19T01:39:49.443Z,815.77
2023-05-19T01:40:49.451Z,815.79
2023-05-19T01:41:49.459Z,815.77
2023-05-19T01:42:49.473Z,815.79
2023-05-19T01:43:49.476Z,815.80
2023-05-19T01:44:49.497Z,815.79
2023-05-19T01:45:49.529Z,815.78
2023-05-19T01:46:49.547Z,815.70
2023-05-19T01:47:49.564Z,815.75
2023-05-19T01:48:49.532Z,815.71
2023-05-19T01:49:49.530Z,815.72
2023-05-19T01:50:49.552Z,815.71
2023-05-19T01:51:49.547Z,815.73
2023-05-19T01:52:49.571Z,815.71
2023-05-19T01:53:49.656Z,815.77
2023-05-19T01:54:49.583Z,815.74
2023-05-19T01:55:49.652Z,815.71
2023-05-19T01:56:49.599Z,815.68
2023-05-19T01:57:49.602Z,815.68
2023-05-19T01:58:49.613Z,815.72
2023-05-19T01:59:49.634Z,815.66
2023-05-19T02:00:49.633Z,815.69
2023-05-19T02:01:49.648Z,815.70
2023-05-19T02:02:49.687Z,815.72
2023-05-19T02:03:49.657Z,815.72
2023-05-19T02:04:49.686Z,815.70
2023-05-19T02:05:49.673Z,815.71
2023-05-19T02:06:49.708Z,815.69
2023-05-19T02:07:49.696Z,815.72
2023-05-19T02:08:49.702Z,815.71
2023-05-19T02:09:49.726Z,815.68
2023-05-19T02:10:49.731Z,815.72
2023-05-19T02:11:49.730Z,815.69
2023-05-19T02:12:49.738Z,815.69
2023-05-19T02:13:49.745Z,815.68
2023-05-19T02:14:49.777Z,815.70
2023-05-19T02:15:49.776Z,815.68
2023-05-19T02:16:49.783Z,815.65
2023-05-19T02:17:49.792Z,815.64
2023-05-19T02:18:49.826Z,815.62
2023-05-19T02:19:49.800Z,815.62
2023-05-19T02:20:49.809Z,815.62
2023-05-19T02:21:49.808Z,815.64
2023-05-19T02:22:49.831Z,815.60
2023-05-19T02:23:49.828Z,815.60
2023-05-19T02:24:49.836Z,815.58
2023-05-19T02:25:49.861Z,815.57
2023-05-19T02:26:49.855Z,815.61
2023-05-19T02:27:49.864Z,815.59
2023-05-19T02:28:49.872Z,815.58
2023-05-19T02:29:49.881Z,815.60
2023-05-19T02:30:49.900Z,815.60
2023-05-19T02:31:49.969Z,815.61
2023-05-19T02:32:49.931Z,815.54
2023-05-19T02:33:49.917Z,815.58
2023-05-19T02:34:49.927Z,815.59
2023-05-19T02:35:49.931Z,815.53
2023-05-19T02:36:50.014Z,815.58
2023-05-19T02:37:49.969Z,815.54
2023-05-19T02:38:49.961Z,815.56
2023-05-19T02:39:49.964Z,815.49
2023-05-19T02:40:49.978Z,815.51
2023-05-19T02:41:50.063Z,815.49
2023-05-19T02:42:50.020Z,815.50
2023-05-19T02:43:49.999Z,815.50
2023-05-19T02:44:50.053Z,815.44
2023-05-19T02:45:50.019Z,815.48
2023-05-19T02:46:50.061Z,815.46
2023-05-19T02:47:50.083Z,815.42
2023-05-19T02:48:50.045Z,815.46
2023-05-19T02:49:50.064Z,815.43
2023-05-19T02:50:50.067Z,815.46
2023-05-19T02:51:50.080Z,815.42
2023-05-19T02:52:50.085Z,815.44
2023-05-19T02:53:50.086Z,815.42
2023-05-19T02:54:50.101Z,815.41
2023-05-19T02:55:50.111Z,815.44
2023-05-19T02:56:50.115Z,815.41
2023-05-19T02:57:50.235Z,815.41
2023-05-19T02:58:50.132Z,815.37
2023-05-19T02:59:50.150Z,815.40
2023-05-19T03:00:50.149Z,815.43
2023-05-19T03:01:50.245Z,815.40
2023-05-19T03:02:50.244Z,815.39
2023-05-19T03:03:50.322Z,815.40
2023-05-19T03:04:50.186Z,815.35
2023-05-19T03:05:50.202Z,815.37
2023-05-19T03:06:50.216Z,815.36
2023-05-19T03:07:50.214Z,815.36
2023-05-19T03:08:50.233Z,815.35
2023-05-19T03:09:50.243Z,815.36
2023-05-19T03:10:50.237Z,815.40
2023-05-19T03:11:50.254Z,815.38
2023-05-19T03:12:50.253Z,815.40
2023-05-19T03:13:50.306Z,815.37
2023-05-19T03:14:50.275Z,815.37
2023-05-19T03:15:50.313Z,815.35
2023-05-19T03:16:50.419Z,815.37
2023-05-19T03:17:50.454Z,815.36
2023-05-19T03:18:50.350Z,815.35
2023-05-19T03:19:50.325Z,815.31
2023-05-19T03:20:50.340Z,815.34
2023-05-19T03:21:50.348Z,815.34
2023-05-19T03:22:50.361Z,815.33
2023-05-19T03:23:50.356Z,815.34
2023-05-19T03:24:50.365Z,815.34
2023-05-19T03:25:50.378Z,815.35
2023-05-19T03:26:50.421Z,815.33
2023-05-19T03:27:50.407Z,815.32
2023-05-19T03:28:50.407Z,815.37
2023-05-19T03:29:50.500Z,815.35
2023-05-19T03:30:50.423Z,815.34
2023-05-19T03:31:50.430Z,815.34
2023-05-19T03:32:50.591Z,815.29
2023-05-19T03:33:50.456Z,815.29
2023-05-19T03:34:50.473Z,815.25
2023-05-19T03:35:50.471Z,815.23
2023-05-19T03:36:50.477Z,815.22
2023-05-19T03:37:50.487Z,815.24
2023-05-19T03:38:50.493Z,815.23
2023-05-19T03:39:50.510Z,815.24
2023-05-19T03:40:50.514Z,815.24
2023-05-19T03:41:50.521Z,815.26
2023-05-19T03:42:50.542Z,815.26
2023-05-19T03:43:50.550Z,815.30
2023-05-19T03:44:50.542Z,815.33
2023-05-19T03:45:50.643Z,815.26
2023-05-19T03:46:50.568Z,815.31
2023-05-19T03:47:50.642Z,815.31
2023-05-19T03:48:50.581Z,815.30
2023-05-19T03:49:50.590Z,815.32
2023-05-19T03:50:50.595Z,815.30
2023-05-19T03:51:50.608Z,815.28
2023-05-19T03:52:50.631Z,815.28
2023-05-19T03:53:50.640Z,815.30
2023-05-19T03:54:50.632Z,815.30
2023-05-19T03:55:50.644Z,815.33
2023-05-19T03:56:50.648Z,815.37
2023-05-19T03:57:50.660Z,815.34
2023-05-19T03:58:50.671Z,815.34
2023-05-19T03:59:50.679Z,815.32
2023-05-19T04:00:50.688Z,815.30
2023-05-19T04:01:50.855Z,815.31
2023-05-19T04:02:50.820Z,815.35
2023-05-19T04:03:50.723Z,815.33
2023-05-19T04:04:51.031Z,815.33
2023-05-19T04:05:50.737Z,815.34
2023-05-19T04:06:50.734Z,815.33
2023-05-19T04:07:50.751Z,815.33
2023-05-19T04:08:50.766Z,815.31
2023-05-19T04:09:50.772Z,815.32
2023-05-19T04:10:50.767Z,815.34
2023-05-19T04:11:50.802Z,815.30
2023-05-19T04:12:50.793Z,815.35
2023-05-19T04:13:50.813Z,815.32
2023-05-19T04:14:50.808Z,815.34
2023-05-19T04:15:50.855Z,815.34
2023-05-19T04:16:50.845Z,815.32
2023-05-19T04:17:50.906Z,815.37
2023-05-19T04:18:50.948Z,815.37
2023-05-19T04:19:50.858Z,815.33
2023-05-19T04:20:50.865Z,815.33
2023-05-19T04:21:50.883Z,815.31
2023-05-19T04:22:50.887Z,815.28
2023-05-19T04:23:50.890Z,815.34
2023-05-19T04:24:50.894Z,815.35
2023-05-19T04:25:50.951Z,815.37
2023-05-19T04:26:50.927Z,815.38
2023-05-19T04:27:50.942Z,815.35
2023-05-19T04:28:50.929Z,815.35
2023-05-19T04:29:50.955Z,815.40
2023-05-19T04:30:51.032Z,815.36
2023-05-19T04:31:50.991Z,815.36
2023-05-19T04:32:51.106Z,815.39
2023-05-19T04:33:51.007Z,815.37
2023-05-19T04:34:51.018Z,815.39
2023-05-19T04:35:51.013Z,815.34
2023-05-19T04:36:53.244Z,815.38
2023-05-19T04:37:51.018Z,815.36
2023-05-19T04:38:51.054Z,815.42
2023-05-19T04:39:51.024Z,815.42
2023-05-19T04:40:51.034Z,815.42
2023-05-19T04:41:51.052Z,815.39
2023-05-19T04:42:51.052Z,815.43
2023-05-19T04:43:51.069Z,815.44
2023-05-19T04:44:51.071Z,815.44
2023-05-19T04:45:51.083Z,815.42
2023-05-19T04:46:51.117Z,815.41
2023-05-19T04:47:51.137Z,815.44
2023-05-19T04:48:51.105Z,815.43
2023-05-19T04:49:51.274Z,815.44
2023-05-19T04:50:51.121Z,815.46
2023-05-19T04:51:53.289Z,815.44
2023-05-19T04:52:51.144Z,815.46
2023-05-19T04:53:51.154Z,815.45
2023-05-19T04:54:51.156Z,815.43
2023-05-19T04:55:51.170Z,815.40
2023-05-19T04:56:51.176Z,815.48
2023-05-19T04:57:51.202Z,815.44
2023-05-19T04:58:51.193Z,815.45
2023-05-19T04:59:51.202Z,815.49
2023-05-19T05:00:51.206Z,815.46
2023-05-19T05:01:51.310Z,815.46
2023-05-19T05:02:51.338Z,815.48
2023-05-19T05:03:51.275Z,815.45
2023-05-19T05:04:51.254Z,815.46
2023-05-19T05:05:51.278Z,815.48
2023-05-19T05:06:51.258Z,815.44
2023-05-19T05:07:51.271Z,815.47
2023-05-19T05:08:51.296Z,815.49
2023-05-19T05:09:51.287Z,815.45
2023-05-19T05:10:51.293Z,815.46
2023-05-19T05:11:51.308Z,815.43
2023-05-19T05:12:51.317Z,815.46
2023-05-19T05:13:51.328Z,815.47
2023-05-19T05:14:51.324Z,815.47
2023-05-19T05:15:51.378Z,815.45
2023-05-19T05:16:51.414Z,815.42
2023-05-19T05:17:51.393Z,815.45
2023-05-19T05:18:51.380Z,815.44
2023-05-19T05:19:51.395Z,815.44
2023-05-19T05:20:51.379Z,815.42
2023-05-19T05:21:52.210Z,815.41
2023-05-19T05:22:51.399Z,815.42
2023-05-19T05:23:51.412Z,815.46
2023-05-19T05:24:51.421Z,815.47
2023-05-19T05:25:51.433Z,815.45
2023-05-19T05:26:51.433Z,815.46
2023-05-19T05:27:51.445Z,815.49
2023-05-19T05:28:51.452Z,815.53
2023-05-19T05:29:51.689Z,815.51
2023-05-19T05:30:51.471Z,815.48
2023-05-19T05:31:51.484Z,815.47
2023-05-19T05:32:51.577Z,815.50
2023-05-19T05:33:51.500Z,815.47
2023-05-19T05:34:51.501Z,815.48
2023-05-19T05:35:51.539Z,815.45
2023-05-19T05:36:51.529Z,815.46
2023-05-19T05:37:51.553Z,815.48
2023-05-19T05:38:51.535Z,815.46
2023-05-19T05:39:51.553Z,815.46
2023-05-19T05:40:51.556Z,815.47
2023-05-19T05:41:51.569Z,815.45
2023-05-19T05:42:51.575Z,815.44
2023-05-19T05:43:51.592Z,815.47
2023-05-19T05:44:51.591Z,815.45
2023-05-19T05:45:51.652Z,815.44
2023-05-19T05:46:51.614Z,815.46
2023-05-19T05:47:51.647Z,815.43
2023-05-19T05:48:51.630Z,815.43
2023-05-19T05:49:53.477Z,815.45
2023-05-19T05:50:51.666Z,815.46
2023-05-19T05:52:04.835Z,815.43
2023-05-19T05:52:51.661Z,815.44
2023-05-19T05:53:51.724Z,815.41
2023-05-19T05:54:51.678Z,815.42
2023-05-19T05:55:51.707Z,815.45
2023-05-19T05:56:51.697Z,815.42
2023-05-19T05:57:51.715Z,815.42
2023-05-19T05:58:51.719Z,815.46
2023-05-19T05:59:51.730Z,815.45
2023-05-19T06:00:51.734Z,815.41
2023-05-19T06:01:51.776Z,815.44
2023-05-19T06:02:51.928Z,815.46
2023-05-19T06:03:51.797Z,815.48
2023-05-19T06:04:51.767Z,815.47
2023-05-19T06:05:51.837Z,815.46
2023-05-19T06:06:51.787Z,815.47
2023-05-19T06:07:51.796Z,815.44
2023-05-19T06:08:51.808Z,815.45
2023-05-19T06:09:51.855Z,815.44
2023-05-19T06:10:51.821Z,815.41
2023-05-19T06:11:51.839Z,815.46
2023-05-19T06:12:51.856Z,815.47
2023-05-19T06:13:51.862Z,815.46
2023-05-19T06:14:51.861Z,815.45
2023-05-19T06:15:51.888Z,815.47
2023-05-19T06:16:51.873Z,815.50
2023-05-19T06:17:51.969Z,815.42
2023-05-19T06:18:51.999Z,815.48
2023-05-19T06:19:51.906Z,815.46
2023-05-19T06:20:51.911Z,815.47
2023-05-19T06:21:51.921Z,815.45
2023-05-19T06:22:51.943Z,815.46
2023-05-19T06:23:51.940Z,815.43
2023-05-19T06:24:51.944Z,815.43
2023-05-19T06:25:51.985Z,815.48
2023-05-19T06:26:51.963Z,815.49
2023-05-19T06:27:51.975Z,815.46
2023-05-19T06:28:51.981Z,815.47
2023-05-19T06:29:51.997Z,815.45
2023-05-19T06:30:51.997Z,815.50
2023-05-19T06:31:52.043Z,815.48
2023-05-19T06:32:52.054Z,815.52
2023-05-19T06:33:52.028Z,815.52
2023-05-19T06:34:52.034Z,815.50
2023-05-19T06:35:52.049Z,815.50
2023-05-19T06:36:52.051Z,815.50
2023-05-19T06:37:52.066Z,815.51
2023-05-19T06:38:52.072Z,815.50
2023-05-19T06:39:52.095Z,815.47
2023-05-19T06:40:52.084Z,815.51
2023-05-19T06:41:52.209Z,815.48
2023-05-19T06:42:52.123Z,815.51
2023-05-19T06:43:52.116Z,815.50
2023-05-19T06:44:52.125Z,815.53
2023-05-19T06:45:52.134Z,815.51
2023-05-19T06:46:52.176Z,815.47
2023-05-19T06:47:52.199Z,815.52
2023-05-19T06:48:52.164Z,815.51
2023-05-19T06:49:52.172Z,815.49
2023-05-19T06:50:52.174Z,815.52
2023-05-19T06:51:52.220Z,815.50
2023-05-19T06:52:52.202Z,815.51
2023-05-19T06:53:52.211Z,815.49
2023-05-19T06:54:52.210Z,815.46
2023-05-19T06:55:58.716Z,815.43
2023-05-19T06:56:52.236Z,815.49
2023-05-19T06:57:52.264Z,815.48
2023-05-19T06:58:52.247Z,815.49
2023-05-19T06:59:52.258Z,815.47
2023-05-19T07:00:52.261Z,815.53
2023-05-19T07:01:52.305Z,815.49
2023-05-19T07:02:52.440Z,815.53
2023-05-19T07:03:52.551Z,815.54
2023-05-19T07:04:52.297Z,815.54
2023-05-19T07:05:52.325Z,815.51
2023-05-19T07:06:52.336Z,815.53
2023-05-19T07:07:52.340Z,815.50
2023-05-19T07:08:52.445Z,815.53
2023-05-19T07:09:52.381Z,815.52
2023-05-19T07:10:52.376Z,815.56
2023-05-19T07:11:52.389Z,815.54
2023-05-19T07:12:52.394Z,815.53
2023-05-19T07:13:52.524Z,815.54
2023-05-19T07:14:52.439Z,815.53
2023-05-19T07:15:52.473Z,815.50
2023-05-19T07:16:52.451Z,815.57
2023-05-19T07:17:52.514Z,815.54
2023-05-19T07:18:52.492Z,815.55
2023-05-19T07:19:52.449Z,815.55
2023-05-19T07:20:52.441Z,815.59
2023-05-19T07:21:52.458Z,815.55
2023-05-19T07:22:52.458Z,815.57
2023-05-19T07:23:52.470Z,815.53
2023-05-19T07:24:52.510Z,815.53
2023-05-19T07:25:52.517Z,815.54
2023-05-19T07:26:52.501Z,815.54
2023-05-19T07:27:52.507Z,815.52
2023-05-19T07:28:52.519Z,815.51
2023-05-19T07:29:52.544Z,815.53
2023-05-19T07:30:52.531Z,815.54
2023-05-19T07:31:52.598Z,815.50
2023-05-19T07:32:52.645Z,815.54
2023-05-19T07:33:54.636Z,815.54
2023-05-19T07:34:52.567Z,815.58
2023-05-19T07:35:52.577Z,815.55
2023-05-19T07:36:52.586Z,815.55
2023-05-19T07:37:52.697Z,815.52
2023-05-19T07:38:52.670Z,815.50
2023-05-19T07:39:52.613Z,815.54
2023-05-19T07:40:52.625Z,815.51
2023-05-19T07:41:52.662Z,815.50
2023-05-19T07:42:52.655Z,815.46
2023-05-19T07:43:52.649Z,815.45
2023-05-19T07:44:52.660Z,815.46
2023-05-19T07:45:52.815Z,815.47
2023-05-19T07:46:52.689Z,815.48
2023-05-19T07:47:52.751Z,815.49
2023-05-19T07:48:52.730Z,815.51
2023-05-19T07:49:52.699Z,815.49
2023-05-19T07:50:52.742Z,815.50
2023-05-19T07:51:52.720Z,815.48
2023-05-19T07:52:52.731Z,815.53
2023-05-19T07:53:52.742Z,815.50
2023-05-19T07:54:52.749Z,815.50
2023-05-19T07:55:52.769Z,815.50
2023-05-19T07:56:52.791Z,815.51
2023-05-19T07:57:52.779Z,815.50
2023-05-19T07:58:52.786Z,815.49
2023-05-19T07:59:52.796Z,815.50
2023-05-19T08:00:52.802Z,815.47
2023-05-19T08:01:52.832Z,815.48
2023-05-19T08:02:52.874Z,815.48
2023-05-19T08:03:52.991Z,815.49
2023-05-19T08:04:53.050Z,815.53
2023-05-19T08:05:52.937Z,815.50
2023-05-19T08:06:52.858Z,815.52
2023-05-19T08:07:52.885Z,815.51
2023-05-19T08:08:52.884Z,815.51
2023-05-19T08:09:52.890Z,815.51
2023-05-19T08:10:52.911Z,815.50
2023-05-19T08:11:52.912Z,815.47
2023-05-19T08:12:52.917Z,815.45
2023-05-19T08:13:52.932Z,815.49
2023-05-19T08:14:52.943Z,815.44
2023-05-19T08:15:53.012Z,815.45
2023-05-19T08:16:52.962Z,815.46
2023-05-19T08:17:53.031Z,815.46
2023-05-19T08:18:53.013Z,815.47
2023-05-19T08:19:52.983Z,815.48
2023-05-19T08:20:53.008Z,815.44
2023-05-19T08:21:53.013Z,815.43
2023-05-19T08:22:53.018Z,815.42
2023-05-19T08:23:53.028Z,815.42
2023-05-19T08:24:53.045Z,815.42
2023-05-19T08:25:53.056Z,815.40
2023-05-19T08:26:53.066Z,815.41
2023-05-19T08:27:53.081Z,815.44
2023-05-19T08:28:53.082Z,815.42
2023-05-19T08:29:53.147Z,815.45
2023-05-19T08:30:53.096Z,815.42
2023-05-19T08:31:53.307Z,815.46
2023-05-19T08:32:53.130Z,815.46
2023-05-19T08:33:53.167Z,815.47
2023-05-19T08:34:53.137Z,815.45
2023-05-19T08:35:53.164Z,815.43
2023-05-19T08:36:53.160Z,815.48
2023-05-19T08:37:53.166Z,815.51
2023-05-19T08:38:53.187Z,815.48
2023-05-19T08:39:53.188Z,815.48
2023-05-19T08:40:53.212Z,815.47
2023-05-19T08:41:53.213Z,815.42
2023-05-19T08:42:53.218Z,815.48
2023-05-19T08:43:53.222Z,815.42
2023-05-19T08:44:53.243Z,815.41
2023-05-19T08:45:53.243Z,815.47
2023-05-19T08:46:53.321Z,815.46
2023-05-19T08:47:53.290Z,815.44
2023-05-19T08:48:53.276Z,815.44
2023-05-19T08:49:53.323Z,815.42
2023-05-19T08:50:53.309Z,815.42
2023-05-19T08:51:53.301Z,815.46
2023-05-19T08:52:53.607Z,815.44
2023-05-19T08:53:53.324Z,815.42
2023-05-19T08:54:53.357Z,815.42
2023-05-19T08:55:53.364Z,815.42
2023-05-19T08:56:53.354Z,815.42
2023-05-19T08:57:53.362Z,815.42
2023-05-19T08:58:53.384Z,815.41
2023-05-19T08:59:53.389Z,815.45
2023-05-19T09:00:53.457Z,815.45
2023-05-19T09:01:53.404Z,815.46
2023-05-19T09:03:00.240Z,815.42
2023-05-19T09:03:53.484Z,815.43
2023-05-19T09:04:53.502Z,815.41
2023-05-19T09:05:53.591Z,815.39
2023-05-19T09:06:53.462Z,815.41
2023-05-19T09:07:53.475Z,815.41
2023-05-19T09:08:53.481Z,815.37
2023-05-19T09:09:53.489Z,815.38
2023-05-19T09:10:53.514Z,815.34
2023-05-19T09:11:53.514Z,815.36
2023-05-19T09:12:53.524Z,815.34
2023-05-19T09:13:53.531Z,815.34
2023-05-19T09:14:53.549Z,815.36
2023-05-19T09:15:53.557Z,815.34
2023-05-19T09:16:53.602Z,815.31
2023-05-19T09:17:53.589Z,815.33
2023-05-19T09:18:53.587Z,815.31
2023-05-19T09:19:53.597Z,815.29
2023-05-19T09:20:53.608Z,815.27
2023-05-19T09:21:53.643Z,815.32
2023-05-19T09:22:53.629Z,815.39
2023-05-19T09:23:53.639Z,815.36
2023-05-19T09:24:53.652Z,815.41
2023-05-19T09:25:53.696Z,815.42
2023-05-19T09:26:53.674Z,815.35
2023-05-19T09:27:53.690Z,815.38
2023-05-19T09:28:53.694Z,815.35
2023-05-19T09:29:53.700Z,815.30
2023-05-19T09:30:53.717Z,815.30
2023-05-19T09:31:53.761Z,815.31
2023-05-19T09:32:53.763Z,815.35
2023-05-19T09:33:53.781Z,815.35
2023-05-19T09:34:53.762Z,815.39
2023-05-19T09:35:53.769Z,815.35
2023-05-19T09:36:54.039Z,815.35
2023-05-19T09:37:53.831Z,815.36
2023-05-19T09:38:53.803Z,815.36
2023-05-19T09:39:53.814Z,815.34
2023-05-19T09:40:53.842Z,815.31
2023-05-19T09:41:53.837Z,815.31
2023-05-19T09:42:53.844Z,815.27
2023-05-19T09:43:53.866Z,815.30
2023-05-19T09:44:53.872Z,815.31
2023-05-19T09:45:53.884Z,815.28
2023-05-19T09:46:53.920Z,815.31
2023-05-19T09:47:53.974Z,815.30
2023-05-19T09:48:53.927Z,815.29
2023-05-19T09:49:53.927Z,815.29
2023-05-19T09:50:53.937Z,815.30
2023-05-19T09:51:53.960Z,815.24
2023-05-19T09:52:53.960Z,815.29
2023-05-19T09:53:53.989Z,815.28
2023-05-19T09:54:53.999Z,815.28
2023-05-19T09:55:54.012Z,815.24
2023-05-19T09:56:54.001Z,815.24
2023-05-19T09:57:54.028Z,815.23
2023-05-19T09:58:54.025Z,815.21
2023-05-19T09:59:54.036Z,815.21
2023-05-19T10:00:54.051Z,815.27
2023-05-19T10:01:54.146Z,815.28
2023-05-19T10:02:54.130Z,815.27
2023-05-19T10:03:54.077Z,815.23
2023-05-19T10:04:54.154Z,815.23
2023-05-19T10:05:54.101Z,815.27
2023-05-19T10:06:54.114Z,815.22
2023-05-19T10:07:54.126Z,815.19
2023-05-19T10:08:54.149Z,815.19
2023-05-19T10:09:54.347Z,815.20
2023-05-19T10:10:54.162Z,815.21
2023-05-19T10:11:54.174Z,815.21
2023-05-19T10:12:54.188Z,815.18
2023-05-19T10:13:54.196Z,815.28
2023-05-19T10:14:54.215Z,815.24
2023-05-19T10:15:58.614Z,815.21
2023-05-19T10:16:54.297Z,815.25
2023-05-19T10:17:54.314Z,815.22
2023-05-19T10:18:54.319Z,815.26
2023-05-19T10:19:54.270Z,815.24
2023-05-19T10:20:54.310Z,815.23
2023-05-19T10:21:54.316Z,815.24
2023-05-19T10:22:54.308Z,815.18
2023-05-19T10:23:54.316Z,815.22
2023-05-19T10:24:54.336Z,815.19
2023-05-19T10:25:54.364Z,815.22
2023-05-19T10:26:54.356Z,815.18
2023-05-19T10:27:54.371Z,815.17
2023-05-19T10:28:54.380Z,815.18
2023-05-19T10:29:54.401Z,815.16
2023-05-19T10:30:54.403Z,815.18
2023-05-19T10:31:54.459Z,815.16
2023-05-19T10:32:54.462Z,815.18
2023-05-19T10:33:54.464Z,815.21
2023-05-19T10:34:54.469Z,815.21
2023-05-19T10:35:54.467Z,815.24
2023-05-19T10:36:54.490Z,815.15
2023-05-19T10:37:54.496Z,815.17
2023-05-19T10:38:54.508Z,815.16
2023-05-19T10:39:54.519Z,815.16
2023-05-19T10:40:54.537Z,815.22
2023-05-19T10:41:54.561Z,815.20
2023-05-19T10:42:54.560Z,815.26
2023-05-19T10:43:54.579Z,815.18
2023-05-19T10:44:54.585Z,815.20
2023-05-19T10:45:54.626Z,815.18
2023-05-19T10:46:56.802Z,815.18
2023-05-19T10:47:54.648Z,815.23
2023-05-19T10:48:54.641Z,815.20
2023-05-19T10:49:54.649Z,815.25
2023-05-19T10:50:54.665Z,815.19
2023-05-19T10:51:54.680Z,815.19
2023-05-19T10:52:54.692Z,815.22
2023-05-19T10:53:54.701Z,815.22
2023-05-19T10:54:54.907Z,815.19
2023-05-19T10:55:54.728Z,815.19
2023-05-19T10:56:54.739Z,815.19
2023-05-19T10:57:54.799Z,815.19
2023-05-19T10:58:54.772Z,815.21
2023-05-19T10:59:54.781Z,815.23
2023-05-19T11:00:54.794Z,815.26
2023-05-19T11:01:54.836Z,815.29
2023-05-19T11:02:54.860Z,815.24
2023-05-19T11:03:54.962Z,815.17
2023-05-19T11:04:54.842Z,815.20
2023-05-19T11:05:54.851Z,815.19
2023-05-19T11:06:54.867Z,815.19
2023-05-19T11:07:54.877Z,815.18
2023-05-19T11:08:54.892Z,815.19
2023-05-19T11:09:54.907Z,815.21
2023-05-19T11:10:54.915Z,815.16
2023-05-19T11:11:54.940Z,815.18
2023-05-19T11:12:54.943Z,815.19
2023-05-19T11:13:55.213Z,815.13
2023-05-19T11:14:54.968Z,815.19
2023-05-19T11:15:54.982Z,815.11
2023-05-19T11:16:55.082Z,815.19
2023-05-19T11:17:55.027Z,815.12
2023-05-19T11:18:55.093Z,815.15
2023-05-19T11:19:55.031Z,815.11
2023-05-19T11:20:55.092Z,815.13
2023-05-19T11:21:55.106Z,815.13
2023-05-19T11:22:55.100Z,815.12
2023-05-19T11:23:55.219Z,815.07
2023-05-19T11:24:55.101Z,815.08
2023-05-19T11:25:55.131Z,815.01
2023-05-19T11:26:55.117Z,815.07
2023-05-19T11:27:55.130Z,815.08
2023-05-19T11:28:55.140Z,815.03
2023-05-19T11:29:55.173Z,815.05
2023-05-19T11:30:55.162Z,815.04
2023-05-19T11:31:55.209Z,815.03
2023-05-19T11:32:55.218Z,815.12
2023-05-19T11:33:55.207Z,815.08
2023-05-19T11:34:55.222Z,815.07
2023-05-19T11:35:55.230Z,815.08
2023-05-19T11:36:55.251Z,815.04
2023-05-19T11:37:55.256Z,815.05
2023-05-19T11:38:55.289Z,815.04
2023-05-19T11:39:55.280Z,815.00
2023-05-19T11:40:55.298Z,815.01
2023-05-19T11:41:55.307Z,814.97
2023-05-19T11:42:55.315Z,815.00
2023-05-19T11:43:55.351Z,814.98
2023-05-19T11:44:55.349Z,814.97
2023-05-19T11:45:55.520Z,814.97
2023-05-19T11:46:55.531Z,815.01
2023-05-19T11:48:01.939Z,814.96
2023-05-19T11:48:55.411Z,814.93
2023-05-19T11:49:55.417Z,814.94
2023-05-19T11:50:55.413Z,814.96
2023-05-19T11:51:55.429Z,815.00
2023-05-19T11:52:55.470Z,814.98
2023-05-19T11:53:55.457Z,815.01
2023-05-19T11:54:55.462Z,815.00
2023-05-19T11:55:55.480Z,814.95
2023-05-19T11:56:55.486Z,814.97
2023-05-19T11:58:03.007Z,814.91
2023-05-19T11:58:55.525Z,814.99
2023-05-19T11:59:55.531Z,815.02
2023-05-19T12:00:55.542Z,815.02
2023-05-19T12:01:55.582Z,815.01
2023-05-19T12:02:55.654Z,815.01
2023-05-19T12:03:55.786Z,815.00
2023-05-19T12:04:55.613Z,814.98
2023-05-19T12:05:55.610Z,815.00
2023-05-19T12:06:55.611Z,814.97
2023-05-19T12:07:55.631Z,814.97
2023-05-19T12:08:55.641Z,814.99
2023-05-19T12:09:55.650Z,814.95
2023-05-19T12:10:55.668Z,814.96
2023-05-19T12:11:55.679Z,814.94
2023-05-19T12:12:55.693Z,814.99
2023-05-19T12:13:55.704Z,814.98
2023-05-19T12:14:55.715Z,815.01
2023-05-19T12:15:55.766Z,815.02
2023-05-19T12:16:55.806Z,815.04
2023-05-19T12:17:55.851Z,815.02
2023-05-19T12:18:55.782Z,815.04
2023-05-19T12:19:55.778Z,815.05
2023-05-19T12:20:55.789Z,815.06
2023-05-19T12:21:55.805Z,815.09
2023-05-19T12:22:55.861Z,815.04
2023-05-19T12:23:55.841Z,815.08
2023-05-19T12:24:55.839Z,815.06
2023-05-19T12:25:55.857Z,815.03
2023-05-19T12:26:55.873Z,815.05
2023-05-19T12:27:56.228Z,815.04
2023-05-19T12:28:55.914Z,814.99